sensor_id;sensor_type;location;lat;lon;timestamp;pressure;altitude;pressure_sealevel;temperature;humidity
64889;BME280;51386;53.082;8.816;2022-11-20T00:00:55;101234.25;;;7.98;52.16
64889;BME280;51386;53.082;8.816;2022-11-20T00:03:23;101228.28;;;7.96;52.25
64889;BME280;51386;53.082;8.816;2022-11-20T00:05:50;101237.66;;;7.99;52.72
64889;BME280;51386;53.082;8.816;2022-11-20T00:08:17;101231.31;;;8.01;52.61
64889;BME280;51386;53.082;8.816;2022-11-20T00:10:44;101227.06;;;8.00;52.48
64889;BME280;51386;53.082;8.816;2022-11-20T00:13:11;101219.88;;;8.02;52.82
64889;BME280;51386;53.082;8.816;2022-11-20T00:15:38;101229.34;;;8.03;52.94
64889;BME280;51386;53.082;8.816;2022-11-20T00:18:05;101233.66;;;8.04;52.84
64889;BME280;51386;53.082;8.816;2022-11-20T00:20:33;101219.72;;;8.04;53.07
64889;BME280;51386;53.082;8.816;2022-11-20T00:23:00;101215.00;;;8.07;52.76
64889;BME280;51386;53.082;8.816;2022-11-20T00:25:27;101219.97;;;8.10;52.67
64889;BME280;51386;53.082;8.816;2022-11-20T00:27:54;101214.72;;;8.10;52.71
64889;BME280;51386;53.082;8.816;2022-11-20T00:30:21;101222.72;;;8.09;52.64
64889;BME280;51386;53.082;8.816;2022-11-20T00:32:48;101219.25;;;8.08;52.62
64889;BME280;51386;53.082;8.816;2022-11-20T00:35:15;101224.50;;;8.08;52.61
64889;BME280;51386;53.082;8.816;2022-11-20T00:37:44;101217.63;;;8.07;53.06
64889;BME280;51386;53.082;8.816;2022-11-20T00:40:13;101221.09;;;8.08;52.67
64889;BME280;51386;53.082;8.816;2022-11-20T00:42:40;101218.59;;;8.06;52.90
64889;BME280;51386;53.082;8.816;2022-11-20T00:45:07;101217.75;;;8.06;52.77
64889;BME280;51386;53.082;8.816;2022-11-20T00:47:34;101215.28;;;8.04;52.78
64889;BME280;51386;53.082;8.816;2022-11-20T00:50:02;101231.97;;;8.03;53.30
64889;BME280;51386;53.082;8.816;2022-11-20T00:52:29;101218.88;;;8.03;53.99
64889;BME280;51386;53.082;8.816;2022-11-20T00:54:57;101210.59;;;8.08;54.20
64889;BME280;51386;53.082;8.816;2022-11-20T00:57:24;101215.69;;;8.09;54.04
64889;BME280;51386;53.082;8.816;2022-11-20T00:59:51;101210.84;;;8.14;54.45
64889;BME280;51386;53.082;8.816;2022-11-20T01:02:18;101205.66;;;8.23;54.62
64889;BME280;51386;53.082;8.816;2022-11-20T01:04:45;101206.06;;;8.28;54.07
64889;BME280;51386;53.082;8.816;2022-11-20T01:07:12;101204.13;;;8.30;53.96
64889;BME280;51386;53.082;8.816;2022-11-20T01:09:39;101202.50;;;8.29;53.55
64889;BME280;51386;53.082;8.816;2022-11-20T01:12:07;101201.13;;;8.25;53.25
64889;BME280;51386;53.082;8.816;2022-11-20T01:14:34;101204.03;;;8.22;53.52
64889;BME280;51386;53.082;8.816;2022-11-20T01:17:01;101202.69;;;8.17;53.37
64889;BME280;51386;53.082;8.816;2022-11-20T01:19:28;101199.50;;;8.14;53.42
64889;BME280;51386;53.082;8.816;2022-11-20T01:21:55;101198.00;;;8.11;53.39
64889;BME280;51386;53.082;8.816;2022-11-20T01:24:22;101198.16;;;8.10;53.33
64889;BME280;51386;53.082;8.816;2022-11-20T01:26:51;101199.41;;;8.06;53.61
64889;BME280;51386;53.082;8.816;2022-11-20T01:29:22;101192.38;;;8.06;53.86
64889;BME280;51386;53.082;8.816;2022-11-20T01:31:51;101183.69;;;8.06;53.97
64889;BME280;51386;53.082;8.816;2022-11-20T01:34:21;101184.00;;;8.03;53.82
64889;BME280;51386;53.082;8.816;2022-11-20T01:36:49;101183.00;;;8.04;54.02
64889;BME280;51386;53.082;8.816;2022-11-20T01:39:19;101178.59;;;8.04;54.04
64889;BME280;51386;53.082;8.816;2022-11-20T01:41:48;101176.66;;;8.06;53.94
64889;BME280;51386;53.082;8.816;2022-11-20T01:44:54;101176.66;;;8.06;54.05
64889;BME280;51386;53.082;8.816;2022-11-20T01:47:28;101170.84;;;8.12;53.65
64889;BME280;51386;53.082;8.816;2022-11-20T01:50:04;101171.78;;;8.11;53.67
64889;BME280;51386;53.082;8.816;2022-11-20T01:52:37;101170.84;;;8.12;53.41
64889;BME280;51386;53.082;8.816;2022-11-20T01:55:10;101169.19;;;8.11;53.44
64889;BME280;51386;53.082;8.816;2022-11-20T01:57:40;101176.22;;;8.11;53.05
64889;BME280;51386;53.082;8.816;2022-11-20T02:00:13;101166.84;;;8.08;52.87
64889;BME280;51386;53.082;8.816;2022-11-20T02:02:44;101166.16;;;8.06;52.82
64889;BME280;51386;53.082;8.816;2022-11-20T02:05:21;101158.75;;;8.02;52.91
64889;BME280;51386;53.082;8.816;2022-11-20T02:07:50;101164.16;;;8.00;53.08
64889;BME280;51386;53.082;8.816;2022-11-20T02:10:17;101169.53;;;7.99;53.25
64889;BME280;51386;53.082;8.816;2022-11-20T02:12:45;101157.53;;;7.96;53.13
64889;BME280;51386;53.082;8.816;2022-11-20T02:15:32;101144.44;;;7.96;53.26
64889;BME280;51386;53.082;8.816;2022-11-20T02:18:00;101147.06;;;7.96;52.97
64889;BME280;51386;53.082;8.816;2022-11-20T02:20:27;101141.13;;;7.94;53.02
64889;BME280;51386;53.082;8.816;2022-11-20T02:22:59;101143.91;;;7.93;53.05
64889;BME280;51386;53.082;8.816;2022-11-20T02:25:32;101144.88;;;7.92;52.99
64889;BME280;51386;53.082;8.816;2022-11-20T02:28:03;101139.78;;;7.90;52.97
64889;BME280;51386;53.082;8.816;2022-11-20T02:30:30;101145.03;;;7.90;52.92
64889;BME280;51386;53.082;8.816;2022-11-20T02:32:58;101145.03;;;7.90;53.06
64889;BME280;51386;53.082;8.816;2022-11-20T02:35:43;101135.81;;;7.86;53.09
64889;BME280;51386;53.082;8.816;2022-11-20T02:38:12;101132.53;;;7.84;52.64
64889;BME280;51386;53.082;8.816;2022-11-20T02:40:41;101128.53;;;7.80;52.55
64889;BME280;51386;53.082;8.816;2022-11-20T02:43:08;101135.72;;;7.78;52.99
64889;BME280;51386;53.082;8.816;2022-11-20T02:45:36;101138.94;;;7.72;53.00
64889;BME280;51386;53.082;8.816;2022-11-20T02:48:05;101131.38;;;7.69;52.79
64889;BME280;51386;53.082;8.816;2022-11-20T02:50:32;101128.91;;;7.68;53.31
64889;BME280;51386;53.082;8.816;2022-11-20T02:52:59;101131.22;;;7.71;53.03
64889;BME280;51386;53.082;8.816;2022-11-20T02:55:26;101129.13;;;7.74;53.32
64889;BME280;51386;53.082;8.816;2022-11-20T02:57:54;101130.47;;;7.78;53.15
64889;BME280;51386;53.082;8.816;2022-11-20T03:00:22;101129.91;;;7.84;53.07
64889;BME280;51386;53.082;8.816;2022-11-20T03:02:49;101129.31;;;7.90;53.35
64889;BME280;51386;53.082;8.816;2022-11-20T03:05:16;101129.03;;;7.93;53.05
64889;BME280;51386;53.082;8.816;2022-11-20T03:07:44;101125.41;;;7.94;52.87
64889;BME280;51386;53.082;8.816;2022-11-20T03:10:11;101120.72;;;7.98;53.15
64889;BME280;51386;53.082;8.816;2022-11-20T03:12:38;101112.69;;;7.99;52.89
64889;BME280;51386;53.082;8.816;2022-11-20T03:15:08;101114.03;;;8.03;53.02
64889;BME280;51386;53.082;8.816;2022-11-20T03:17:35;101112.13;;;8.05;52.40
64889;BME280;51386;53.082;8.816;2022-11-20T03:20:03;101109.03;;;8.10;52.94
64889;BME280;51386;53.082;8.816;2022-11-20T03:22:31;101111.06;;;8.16;53.26
64889;BME280;51386;53.082;8.816;2022-11-20T03:24:58;101104.91;;;8.25;52.99
64889;BME280;51386;53.082;8.816;2022-11-20T03:27:24;101102.25;;;8.35;52.83
64889;BME280;51386;53.082;8.816;2022-11-20T03:29:51;101092.78;;;8.42;52.80
64889;BME280;51386;53.082;8.816;2022-11-20T03:32:20;101087.91;;;8.47;52.31
64889;BME280;51386;53.082;8.816;2022-11-20T03:34:47;101098.28;;;8.48;52.33
64889;BME280;51386;53.082;8.816;2022-11-20T03:37:14;101091.38;;;8.47;52.03
64889;BME280;51386;53.082;8.816;2022-11-20T03:39:41;101092.19;;;8.48;52.04
64889;BME280;51386;53.082;8.816;2022-11-20T03:42:08;101094.81;;;8.48;51.83
64889;BME280;51386;53.082;8.816;2022-11-20T03:44:55;101094.94;;;8.46;51.87
64889;BME280;51386;53.082;8.816;2022-11-20T03:47:24;101080.38;;;8.44;51.80
64889;BME280;51386;53.082;8.816;2022-11-20T03:49:51;101078.41;;;8.46;52.09
64889;BME280;51386;53.082;8.816;2022-11-20T03:52:18;101073.53;;;8.51;52.45
64889;BME280;51386;53.082;8.816;2022-11-20T03:54:45;101078.31;;;8.55;51.81
64889;BME280;51386;53.082;8.816;2022-11-20T03:57:12;101070.59;;;8.54;51.31
64889;BME280;51386;53.082;8.816;2022-11-20T03:59:39;101069.63;;;8.55;51.58
64889;BME280;51386;53.082;8.816;2022-11-20T04:02:06;101072.91;;;8.57;51.62
64889;BME280;51386;53.082;8.816;2022-11-20T04:04:35;101066.69;;;8.58;51.45
64889;BME280;51386;53.082;8.816;2022-11-20T04:07:02;101064.88;;;8.58;51.18
64889;BME280;51386;53.082;8.816;2022-11-20T04:09:29;101067.19;;;8.61;51.39
64889;BME280;51386;53.082;8.816;2022-11-20T04:11:56;101072.66;;;8.68;51.52
64889;BME280;51386;53.082;8.816;2022-11-20T04:14:23;101075.63;;;8.73;51.68
64889;BME280;51386;53.082;8.816;2022-11-20T04:16:50;101074.69;;;8.74;50.91
64889;BME280;51386;53.082;8.816;2022-11-20T04:19:17;101065.81;;;8.75;51.08
64889;BME280;51386;53.082;8.816;2022-11-20T04:21:46;101061.56;;;8.74;51.04
64889;BME280;51386;53.082;8.816;2022-11-20T04:24:14;101060.56;;;8.75;50.99
64889;BME280;51386;53.082;8.816;2022-11-20T04:26:41;101057.44;;;8.71;50.65
64889;BME280;51386;53.082;8.816;2022-11-20T04:29:10;101060.53;;;8.67;50.46
64889;BME280;51386;53.082;8.816;2022-11-20T04:31:37;101061.78;;;8.63;50.83
64889;BME280;51386;53.082;8.816;2022-11-20T04:34:06;101049.50;;;8.63;51.15
64889;BME280;51386;53.082;8.816;2022-11-20T04:36:34;101055.28;;;8.67;50.96
64889;BME280;51386;53.082;8.816;2022-11-20T04:39:05;101051.00;;;8.66;51.13
64889;BME280;51386;53.082;8.816;2022-11-20T04:41:35;101065.41;;;8.62;51.00
64889;BME280;51386;53.082;8.816;2022-11-20T04:44:05;101071.13;;;8.57;50.45
64889;BME280;51386;53.082;8.816;2022-11-20T04:46:35;101063.72;;;8.53;50.71
64889;BME280;51386;53.082;8.816;2022-11-20T04:49:03;101055.19;;;8.51;51.15
64889;BME280;51386;53.082;8.816;2022-11-20T04:51:31;101049.22;;;8.49;50.71
64889;BME280;51386;53.082;8.816;2022-11-20T04:53:58;101057.44;;;8.46;50.81
64889;BME280;51386;53.082;8.816;2022-11-20T04:56:26;101050.03;;;8.41;50.45
64889;BME280;51386;53.082;8.816;2022-11-20T04:58:53;101055.72;;;8.37;50.50
64889;BME280;51386;53.082;8.816;2022-11-20T05:01:23;101051.75;;;8.33;50.59
64889;BME280;51386;53.082;8.816;2022-11-20T05:03:50;101045.84;;;8.31;50.90
64889;BME280;51386;53.082;8.816;2022-11-20T05:06:20;101050.41;;;8.29;50.80
64889;BME280;51386;53.082;8.816;2022-11-20T05:08:48;101053.69;;;8.31;50.89
64889;BME280;51386;53.082;8.816;2022-11-20T05:11:18;101047.63;;;8.30;51.26
64889;BME280;51386;53.082;8.816;2022-11-20T05:13:47;101049.28;;;8.31;50.82
64889;BME280;51386;53.082;8.816;2022-11-20T05:16:18;101057.97;;;8.32;51.33
64889;BME280;51386;53.082;8.816;2022-11-20T05:18:46;101048.66;;;8.37;51.39
64889;BME280;51386;53.082;8.816;2022-11-20T05:21:14;101049.69;;;8.44;51.23
64889;BME280;51386;53.082;8.816;2022-11-20T05:23:43;101040.41;;;8.50;51.10
64889;BME280;51386;53.082;8.816;2022-11-20T05:26:14;101043.41;;;8.55;51.13
64889;BME280;51386;53.082;8.816;2022-11-20T05:28:42;101040.78;;;8.55;50.67
64889;BME280;51386;53.082;8.816;2022-11-20T05:31:12;101042.41;;;8.56;50.99
64889;BME280;51386;53.082;8.816;2022-11-20T05:33:41;101036.34;;;8.55;50.10
64889;BME280;51386;53.082;8.816;2022-11-20T05:36:10;101039.44;;;8.51;50.63
64889;BME280;51386;53.082;8.816;2022-11-20T05:38:37;101047.97;;;8.53;50.69
64889;BME280;51386;53.082;8.816;2022-11-20T05:41:05;101036.13;;;8.49;50.78
64889;BME280;51386;53.082;8.816;2022-11-20T05:43:33;101040.03;;;8.45;50.45
64889;BME280;51386;53.082;8.816;2022-11-20T05:46:02;101039.38;;;8.43;50.63
64889;BME280;51386;53.082;8.816;2022-11-20T05:48:30;101032.94;;;8.37;50.61
64889;BME280;51386;53.082;8.816;2022-11-20T05:50:58;101032.44;;;8.34;50.27
64889;BME280;51386;53.082;8.816;2022-11-20T05:53:26;101038.78;;;8.31;50.80
64889;BME280;51386;53.082;8.816;2022-11-20T05:55:58;101039.94;;;8.29;50.84
64889;BME280;51386;53.082;8.816;2022-11-20T05:58:25;101034.94;;;8.26;51.19
64889;BME280;51386;53.082;8.816;2022-11-20T06:00:52;101024.75;;;8.23;51.19
64889;BME280;51386;53.082;8.816;2022-11-20T06:03:20;101026.41;;;8.24;51.65
64889;BME280;51386;53.082;8.816;2022-11-20T06:05:48;101024.47;;;8.26;51.37
64889;BME280;51386;53.082;8.816;2022-11-20T06:08:16;101029.44;;;8.29;51.62
64889;BME280;51386;53.082;8.816;2022-11-20T06:10:43;101025.81;;;8.30;51.77
64889;BME280;51386;53.082;8.816;2022-11-20T06:13:10;101017.53;;;8.34;51.56
64889;BME280;51386;53.082;8.816;2022-11-20T06:15:37;101018.03;;;8.38;51.62
64889;BME280;51386;53.082;8.816;2022-11-20T06:18:04;101012.19;;;8.44;51.43
64889;BME280;51386;53.082;8.816;2022-11-20T06:20:31;101007.44;;;8.47;51.64
64889;BME280;51386;53.082;8.816;2022-11-20T06:22:59;101003.22;;;8.54;51.59
64889;BME280;51386;53.082;8.816;2022-11-20T06:25:26;101007.03;;;8.60;51.31
64889;BME280;51386;53.082;8.816;2022-11-20T06:27:53;101004.91;;;8.63;50.90
64889;BME280;51386;53.082;8.816;2022-11-20T06:30:20;101002.94;;;8.65;51.11
64889;BME280;51386;53.082;8.816;2022-11-20T06:32:47;101007.53;;;8.63;51.06
64889;BME280;51386;53.082;8.816;2022-11-20T06:35:14;101016.88;;;8.66;51.10
64889;BME280;51386;53.082;8.816;2022-11-20T06:37:42;101005.13;;;8.70;50.88
64889;BME280;51386;53.082;8.816;2022-11-20T06:40:11;101009.06;;;8.74;51.26
64889;BME280;51386;53.082;8.816;2022-11-20T06:42:39;101005.47;;;8.75;50.87
64889;BME280;51386;53.082;8.816;2022-11-20T06:45:07;101017.09;;;8.72;50.43
64889;BME280;51386;53.082;8.816;2022-11-20T06:47:35;101013.31;;;8.67;50.33
64889;BME280;51386;53.082;8.816;2022-11-20T06:50:02;101005.91;;;8.62;50.55
64889;BME280;51386;53.082;8.816;2022-11-20T06:52:29;100998.50;;;8.58;50.33
64889;BME280;51386;53.082;8.816;2022-11-20T06:54:56;101001.44;;;8.55;50.60
64889;BME280;51386;53.082;8.816;2022-11-20T06:57:24;100999.09;;;8.52;50.63
64889;BME280;51386;53.082;8.816;2022-11-20T06:59:51;100994.16;;;8.49;51.03
64889;BME280;51386;53.082;8.816;2022-11-20T07:02:18;100995.50;;;8.53;51.01
64889;BME280;51386;53.082;8.816;2022-11-20T07:04:45;100990.88;;;8.47;50.78
64889;BME280;51386;53.082;8.816;2022-11-20T07:07:12;100974.09;;;8.40;50.77
64889;BME280;51386;53.082;8.816;2022-11-20T07:09:39;100964.72;;;8.11;51.17
64889;BME280;51386;53.082;8.816;2022-11-20T07:12:06;100982.03;;;8.04;51.26
64889;BME280;51386;53.082;8.816;2022-11-20T07:14:34;100990.19;;;8.01;51.10
64889;BME280;51386;53.082;8.816;2022-11-20T07:17:02;100993.13;;;7.98;51.28
64889;BME280;51386;53.082;8.816;2022-11-20T07:19:29;100995.75;;;7.98;51.33
64889;BME280;51386;53.082;8.816;2022-11-20T07:21:57;100998.22;;;8.00;51.62
64889;BME280;51386;53.082;8.816;2022-11-20T07:24:23;101003.97;;;8.03;51.84
64889;BME280;51386;53.082;8.816;2022-11-20T07:26:51;100997.59;;;8.06;52.08
64889;BME280;51386;53.082;8.816;2022-11-20T07:29:18;101002.25;;;8.12;52.18
64889;BME280;51386;53.082;8.816;2022-11-20T07:31:47;101002.75;;;8.15;51.71
64889;BME280;51386;53.082;8.816;2022-11-20T07:34:13;101006.06;;;8.17;51.54
64889;BME280;51386;53.082;8.816;2022-11-20T07:36:41;100999.81;;;8.18;51.59
64889;BME280;51386;53.082;8.816;2022-11-20T07:39:07;101001.13;;;8.14;51.78
64889;BME280;51386;53.082;8.816;2022-11-20T07:41:34;100998.63;;;8.13;51.58
64889;BME280;51386;53.082;8.816;2022-11-20T07:44:02;100997.81;;;8.12;51.61
64889;BME280;51386;53.082;8.816;2022-11-20T07:46:38;100989.28;;;8.10;51.66
64889;BME280;51386;53.082;8.816;2022-11-20T07:49:06;100998.63;;;8.13;52.02
64889;BME280;51386;53.082;8.816;2022-11-20T07:51:33;100988.38;;;8.19;51.65
64889;BME280;51386;53.082;8.816;2022-11-20T07:54:00;100994.69;;;8.27;51.62
64889;BME280;51386;53.082;8.816;2022-11-20T07:56:27;100997.34;;;8.35;51.47
64889;BME280;51386;53.082;8.816;2022-11-20T07:58:54;100995.72;;;8.34;51.01
64889;BME280;51386;53.082;8.816;2022-11-20T08:01:21;100996.22;;;8.37;50.81
64889;BME280;51386;53.082;8.816;2022-11-20T08:03:48;100994.41;;;8.38;50.90
64889;BME280;51386;53.082;8.816;2022-11-20T08:06:17;100994.59;;;8.36;50.77
64889;BME280;51386;53.082;8.816;2022-11-20T08:08:45;100997.34;;;8.35;50.75
64889;BME280;51386;53.082;8.816;2022-11-20T08:11:12;100996.53;;;8.34;50.82
64889;BME280;51386;53.082;8.816;2022-11-20T08:13:58;101011.44;;;8.34;50.80
64889;BME280;51386;53.082;8.816;2022-11-20T08:16:41;101015.41;;;8.38;50.77
64889;BME280;51386;53.082;8.816;2022-11-20T08:19:08;101013.44;;;8.40;50.70
64889;BME280;51386;53.082;8.816;2022-11-20T08:21:37;101008.88;;;8.42;50.56
64889;BME280;51386;53.082;8.816;2022-11-20T08:24:06;101002.34;;;8.46;50.77
64889;BME280;51386;53.082;8.816;2022-11-20T08:26:34;101003.38;;;8.53;50.27
64889;BME280;51386;53.082;8.816;2022-11-20T08:29:01;100999.63;;;8.55;50.14
64889;BME280;51386;53.082;8.816;2022-11-20T08:31:28;101004.06;;;8.63;50.24
64889;BME280;51386;53.082;8.816;2022-11-20T08:33:56;101007.06;;;8.68;50.04
64889;BME280;51386;53.082;8.816;2022-11-20T08:36:24;101011.03;;;8.72;49.89
64889;BME280;51386;53.082;8.816;2022-11-20T08:38:55;101016.28;;;8.72;49.80
64889;BME280;51386;53.082;8.816;2022-11-20T08:41:22;101012.00;;;8.71;49.48
64889;BME280;51386;53.082;8.816;2022-11-20T08:43:56;101012.38;;;8.76;49.45
64889;BME280;51386;53.082;8.816;2022-11-20T08:46:24;101007.16;;;8.84;49.74
64889;BME280;51386;53.082;8.816;2022-11-20T08:48:52;101012.75;;;8.89;49.45
64889;BME280;51386;53.082;8.816;2022-11-20T08:51:20;101014.94;;;8.94;49.23
64889;BME280;51386;53.082;8.816;2022-11-20T08:53:47;101008.53;;;8.96;48.83
64889;BME280;51386;53.082;8.816;2022-11-20T08:56:17;101011.00;;;8.98;49.29
64889;BME280;51386;53.082;8.816;2022-11-20T08:58:44;101013.47;;;8.99;49.13
64889;BME280;51386;53.082;8.816;2022-11-20T09:01:31;101016.25;;;8.98;49.11
64889;BME280;51386;53.082;8.816;2022-11-20T09:03:58;101006.88;;;8.95;48.89
64889;BME280;51386;53.082;8.816;2022-11-20T09:06:26;101008.84;;;8.93;48.93
64889;BME280;51386;53.082;8.816;2022-11-20T09:08:54;101009.81;;;8.92;48.93
64889;BME280;51386;53.082;8.816;2022-11-20T09:11:22;101018.00;;;8.89;48.65
64889;BME280;51386;53.082;8.816;2022-11-20T09:13:49;101023.56;;;8.86;49.03
64889;BME280;51386;53.082;8.816;2022-11-20T09:16:18;101023.72;;;8.84;48.92
64889;BME280;51386;53.082;8.816;2022-11-20T09:18:45;101016.38;;;8.88;49.37
64889;BME280;51386;53.082;8.816;2022-11-20T09:21:13;101014.09;;;8.93;49.21
64889;BME280;51386;53.082;8.816;2022-11-20T09:23:41;101019.03;;;8.96;49.35
64889;BME280;51386;53.082;8.816;2022-11-20T09:26:11;101017.88;;;8.99;48.86
64889;BME280;51386;53.082;8.816;2022-11-20T09:28:40;101016.75;;;9.01;49.25
64889;BME280;51386;53.082;8.816;2022-11-20T09:31:23;101020.38;;;9.00;48.62
64889;BME280;51386;53.082;8.816;2022-11-20T09:33:51;101016.75;;;9.01;48.89
64889;BME280;51386;53.082;8.816;2022-11-20T09:36:19;101017.06;;;8.98;48.72
64889;BME280;51386;53.082;8.816;2022-11-20T09:38:47;101006.06;;;8.95;49.11
64889;BME280;51386;53.082;8.816;2022-11-20T09:41:49;101011.41;;;8.85;49.11
64889;BME280;51386;53.082;8.816;2022-11-20T09:44:42;101015.34;;;8.81;49.58
64889;BME280;51386;53.082;8.816;2022-11-20T09:47:28;101007.84;;;8.86;49.35
64889;BME280;51386;53.082;8.816;2022-11-20T09:50:18;101003.91;;;8.90;49.47
64889;BME280;51386;53.082;8.816;2022-11-20T09:53:07;101004.88;;;8.89;49.46
64889;BME280;51386;53.082;8.816;2022-11-20T09:55:38;101001.59;;;8.87;49.25
64889;BME280;51386;53.082;8.816;2022-11-20T09:58:14;101009.28;;;8.80;49.21
64889;BME280;51386;53.082;8.816;2022-11-20T10:00:45;101005.47;;;8.75;49.52
64889;BME280;51386;53.082;8.816;2022-11-20T10:03:21;100994.97;;;8.75;50.11
64889;BME280;51386;53.082;8.816;2022-11-20T10:05:54;100995.66;;;8.77;50.15
64889;BME280;51386;53.082;8.816;2022-11-20T10:08:25;100999.91;;;8.78;50.07
64889;BME280;51386;53.082;8.816;2022-11-20T10:11:04;101000.22;;;8.75;49.93
64889;BME280;51386;53.082;8.816;2022-11-20T10:13:48;100999.53;;;8.73;50.07
64889;BME280;51386;53.082;8.816;2022-11-20T10:16:33;101002.66;;;8.68;50.29
64889;BME280;51386;53.082;8.816;2022-11-20T10:19:30;100999.53;;;8.65;50.70
64889;BME280;51386;53.082;8.816;2022-11-20T10:22:13;100991.66;;;8.65;50.95
64889;BME280;51386;53.082;8.816;2022-11-20T10:24:55;100992.81;;;8.70;51.24
64889;BME280;51386;53.082;8.816;2022-11-20T10:28:02;100995.66;;;8.77;51.61
64889;BME280;51386;53.082;8.816;2022-11-20T10:30:37;100992.38;;;8.83;51.19
64889;BME280;51386;53.082;8.816;2022-11-20T10:33:15;100989.75;;;8.83;51.02
64889;BME280;51386;53.082;8.816;2022-11-20T10:35:49;100985.47;;;8.82;51.01
64889;BME280;51386;53.082;8.816;2022-11-20T10:38:25;100982.53;;;8.77;50.90
64889;BME280;51386;53.082;8.816;2022-11-20T10:40:59;100971.50;;;8.73;51.25
64889;BME280;51386;53.082;8.816;2022-11-20T10:43:48;100975.44;;;8.69;51.32
64889;BME280;51386;53.082;8.816;2022-11-20T10:46:20;100979.34;;;8.65;51.24
64889;BME280;51386;53.082;8.816;2022-11-20T10:48:52;100971.78;;;8.62;51.61
64889;BME280;51386;53.082;8.816;2022-11-20T10:51:34;100981.63;;;8.60;51.65
64889;BME280;51386;53.082;8.816;2022-11-20T10:54:17;100980.81;;;8.60;51.80
64889;BME280;51386;53.082;8.816;2022-11-20T10:56:48;100987.53;;;8.62;51.94
64889;BME280;51386;53.082;8.816;2022-11-20T11:02:29;100973.53;;;8.54;52.06
64889;BME280;51386;53.082;8.816;2022-11-20T11:05:13;100978.41;;;8.49;52.04
64889;BME280;51386;53.082;8.816;2022-11-20T11:07:41;100964.34;;;8.50;52.42
64889;BME280;51386;53.082;8.816;2022-11-20T11:10:18;100963.22;;;8.52;52.51
64889;BME280;51386;53.082;8.816;2022-11-20T11:12:47;100960.75;;;8.51;52.37
64889;BME280;51386;53.082;8.816;2022-11-20T11:15:28;100954.38;;;8.53;52.32
64889;BME280;51386;53.082;8.816;2022-11-20T11:17:56;100958.47;;;8.56;52.41
64889;BME280;51386;53.082;8.816;2022-11-20T11:20:26;100955.50;;;8.51;52.03
64889;BME280;51386;53.082;8.816;2022-11-20T11:22:56;100952.06;;;8.50;52.81
64889;BME280;51386;53.082;8.816;2022-11-20T11:25:27;100958.78;;;8.53;52.73
64889;BME280;51386;53.082;8.816;2022-11-20T11:27:59;100948.13;;;8.54;52.24
64889;BME280;51386;53.082;8.816;2022-11-20T11:30:29;100947.00;;;8.57;52.63
64889;BME280;51386;53.082;8.816;2022-11-20T11:33:11;100946.53;;;8.61;52.92
64889;BME280;51386;53.082;8.816;2022-11-20T11:35:45;100942.00;;;8.71;52.84
64889;BME280;51386;53.082;8.816;2022-11-20T11:38:21;100942.22;;;8.86;52.66
64889;BME280;51386;53.082;8.816;2022-11-20T11:40:54;100938.94;;;8.92;52.33
64889;BME280;51386;53.082;8.816;2022-11-20T11:43:26;100941.59;;;9.00;52.24
64889;BME280;51386;53.082;8.816;2022-11-20T11:46:32;100940.31;;;9.04;51.96
64889;BME280;51386;53.082;8.816;2022-11-20T11:49:08;100940.34;;;9.12;51.40
64889;BME280;51386;53.082;8.816;2022-11-20T11:51:56;100937.72;;;9.12;51.00
64889;BME280;51386;53.082;8.816;2022-11-20T11:54:31;100942.13;;;9.12;50.50
64889;BME280;51386;53.082;8.816;2022-11-20T11:57:11;100936.72;;;9.13;50.79
64889;BME280;51386;53.082;8.816;2022-11-20T11:59:59;100934.94;;;9.22;50.39
64889;BME280;51386;53.082;8.816;2022-11-20T12:02:37;100939.41;;;9.37;50.65
64889;BME280;51386;53.082;8.816;2022-11-20T12:05:17;100938.09;;;9.49;49.98
64889;BME280;51386;53.082;8.816;2022-11-20T12:07:50;100936.97;;;9.60;49.63
64889;BME280;51386;53.082;8.816;2022-11-20T12:10:37;100936.97;;;9.68;49.04
64889;BME280;51386;53.082;8.816;2022-11-20T12:13:26;100933.03;;;9.72;48.71
64889;BME280;51386;53.082;8.816;2022-11-20T12:15:58;100922.19;;;9.75;48.56
64889;BME280;51386;53.082;8.816;2022-11-20T12:18:28;100922.69;;;9.79;48.10
64889;BME280;51386;53.082;8.816;2022-11-20T12:21:09;100925.66;;;9.84;48.15
64889;BME280;51386;53.082;8.816;2022-11-20T12:23:59;100931.56;;;9.86;47.85
64889;BME280;51386;53.082;8.816;2022-11-20T12:26:47;100934.19;;;9.86;47.38
64889;BME280;51386;53.082;8.816;2022-11-20T12:29:35;100920.72;;;9.81;47.24
64889;BME280;51386;53.082;8.816;2022-11-20T12:32:37;100920.03;;;9.71;47.23
64889;BME280;51386;53.082;8.816;2022-11-20T12:35:32;100919.38;;;9.61;46.85
64889;BME280;51386;53.082;8.816;2022-11-20T12:38:45;100917.75;;;9.51;47.42
64889;BME280;51386;53.082;8.816;2022-11-20T12:41:28;100912.81;;;9.48;47.11
64889;BME280;51386;53.082;8.816;2022-11-20T12:44:35;100918.06;;;9.40;47.80
64889;BME280;51386;53.082;8.816;2022-11-20T12:47:39;100918.38;;;9.37;48.01
64889;BME280;51386;53.082;8.816;2022-11-20T12:50:19;100925.59;;;9.35;47.78
64889;BME280;51386;53.082;8.816;2022-11-20T12:52:56;100926.28;;;9.29;47.94
64889;BME280;51386;53.082;8.816;2022-11-20T12:55:39;100916.06;;;9.26;48.45
64889;BME280;51386;53.082;8.816;2022-11-20T12:58:20;100917.69;;;9.27;48.69
64889;BME280;51386;53.082;8.816;2022-11-20T13:01:00;100913.31;;;9.36;48.80
64889;BME280;51386;53.082;8.816;2022-11-20T13:03:40;100913.47;;;9.42;48.64
64889;BME280;51386;53.082;8.816;2022-11-20T13:06:16;100912.50;;;9.43;48.36
64889;BME280;51386;53.082;8.816;2022-11-20T13:08:52;100913.97;;;9.38;48.16
64889;BME280;51386;53.082;8.816;2022-11-20T13:11:27;100913.44;;;9.34;48.33
64889;BME280;51386;53.082;8.816;2022-11-20T13:14:11;100911.66;;;9.27;48.37
64889;BME280;51386;53.082;8.816;2022-11-20T13:16:50;100906.84;;;9.22;47.87
64889;BME280;51386;53.082;8.816;2022-11-20T13:19:19;100906.00;;;9.06;48.71
64889;BME280;51386;53.082;8.816;2022-11-20T13:21:49;100904.34;;;8.97;49.51
64889;BME280;51386;53.082;8.816;2022-11-20T13:24:24;100909.28;;;9.00;49.56
64889;BME280;51386;53.082;8.816;2022-11-20T13:27:05;100897.81;;;9.01;49.26